Time;durP1;ratioP1;P1;durP2;ratioP2;P2;SDS_P1;SDS_P2;PMS_P1;PMS_P2;Temp;Humidity;BMP_temperature;BMP_pressure;BME280_temperature;BME280_humidity;BME280_pressure;Samples;Min_cycle;Max_cycle;Signal;HPM_P1;HPM_P2
2022/06/24 00:00:50;;;;;;;4.00;1.70;;;;;;;18.77;100.00;97644.03;5035435;28;20228;-68
2022/06/24 00:03:18;;;;;;;6.93;1.87;;;;;;;18.79;100.00;97636.44;5035446;28;20681;-68
2022/06/24 00:05:47;;;;;;;3.50;1.70;;;;;;;18.83;100.00;97630.19;5035716;28;20288;-68
2022/06/24 00:08:15;;;;;;;5.40;2.00;;;;;;;18.88;100.00;97627.50;5035269;28;20308;-68
2022/06/24 00:10:43;;;;;;;8.13;2.03;;;;;;;18.75;100.00;97622.75;5035593;28;20206;-68
2022/06/24 00:13:09;;;;;;;4.30;1.90;;;;;;;18.87;100.00;97625.88;5035575;28;20214;-69
2022/06/24 00:15:37;;;;;;;4.33;1.77;;;;;;;18.76;100.00;97634.31;5035503;28;20292;-69
2022/06/24 00:18:16;;;;;;;8.03;2.47;;;;;;;18.72;100.00;97635.94;5035396;28;20316;-69
2022/06/24 00:20:45;;;;;;;2.77;1.87;;;;;;;18.78;100.00;97622.16;5035353;28;20230;-68
2022/06/24 00:23:13;;;;;;;4.53;2.00;;;;;;;18.80;100.00;97619.19;5035344;28;20305;-69
2022/06/24 00:25:39;;;;;;;5.67;2.10;;;;;;;18.77;100.00;97619.78;5035328;28;20275;-69
2022/06/24 00:28:10;;;;;;;5.33;2.40;;;;;;;18.84;100.00;97609.47;5035724;28;20230;-69
2022/06/24 00:30:45;;;;;;;4.67;2.10;;;;;;;18.86;100.00;97610.81;5035781;28;20183;-69
2022/06/24 00:33:15;;;;;;;6.00;2.83;;;;;;;18.74;100.00;97614.94;5035163;28;20216;-69
2022/06/24 00:35:48;;;;;;;5.13;2.87;;;;;;;18.72;100.00;97617.91;5034656;28;20245;-69
2022/06/24 00:38:41;;;;;;;6.83;3.10;;;;;;;18.71;100.00;97613.63;5034727;28;20709;-69
2022/06/24 00:41:23;;;;;;;5.37;2.80;;;;;;;18.67;100.00;97617.13;5032078;28;20237;-69
2022/06/24 00:43:56;;;;;;;5.10;3.00;;;;;;;18.71;100.00;97610.94;5035030;28;20278;-69
2022/06/24 00:46:36;;;;;;;6.67;3.07;;;;;;;18.67;100.00;97607.19;5034958;28;20198;-68
2022/06/24 00:49:03;;;;;;;5.00;3.07;;;;;;;18.67;100.00;97604.50;5018032;28;20233;-68
2022/06/24 00:51:34;;;;;;;6.93;2.97;;;;;;;18.63;100.00;97589.16;5034871;28;20205;-69
2022/06/24 00:54:09;;;;;;;5.27;3.60;;;;;;;18.67;100.00;97582.13;5034390;28;20730;-69
2022/06/24 00:56:36;;;;;;;7.17;3.73;;;;;;;18.64;100.00;97580.81;5034804;28;20200;-69
2022/06/24 00:59:06;;;;;;;5.57;3.00;;;;;;;18.55;100.00;97590.56;5034542;28;20225;-69
2022/06/24 01:01:38;;;;;;;5.20;3.03;;;;;;;18.54;100.00;97597.03;5034375;28;20687;-68
2022/06/24 01:04:07;;;;;;;7.03;2.90;;;;;;;18.57;100.00;97590.31;5034642;28;20196;-69
2022/06/24 01:06:35;;;;;;;6.30;3.13;;;;;;;18.57;100.00;97593.81;5034465;28;20206;-69
2022/06/24 01:09:02;;;;;;;5.40;2.40;;;;;;;18.58;100.00;97575.75;5034433;28;20232;-69
2022/06/24 01:11:40;;;;;;;5.87;2.53;;;;;;;18.50;100.00;97576.38;5034451;28;20212;-69
2022/06/24 01:14:08;;;;;;;6.47;2.70;;;;;;;18.51;100.00;97565.28;5034349;28;20206;-69
2022/06/24 01:16:35;;;;;;;7.43;2.90;;;;;;;18.51;100.00;97551.84;5034387;28;20293;-69
2022/06/24 01:19:04;;;;;;;5.43;2.73;;;;;;;18.43;100.00;97559.72;5034202;28;20232;-69
2022/06/24 01:21:43;;;;;;;6.03;2.50;;;;;;;18.44;100.00;97564.81;5033961;28;20578;-69
2022/06/24 01:24:12;;;;;;;7.47;2.33;;;;;;;18.46;100.00;97559.94;5034798;28;20186;-68
2022/06/24 01:26:41;;;;;;;5.40;2.03;;;;;;;18.45;100.00;97547.59;5033915;28;20661;-69
2022/06/24 01:29:08;;;;;;;4.47;2.07;;;;;;;18.46;100.00;97548.41;5034600;28;20232;-69
2022/06/24 01:31:35;;;;;;;5.87;2.37;;;;;;;18.43;100.00;97552.47;5033768;28;20689;-69
2022/06/24 01:34:02;;;;;;;3.63;2.20;;;;;;;18.38;100.00;97543.59;5034068;28;20209;-68
2022/06/24 01:36:28;;;;;;;4.60;2.20;;;;;;;18.29;100.00;97542.56;5034040;28;20299;-69
2022/06/24 01:38:54;;;;;;;4.37;2.00;;;;;;;18.38;100.00;97528.28;5033942;28;20320;-69
2022/06/24 01:41:21;;;;;;;5.13;1.87;;;;;;;18.32;100.00;97545.50;5033563;28;20722;-68
2022/06/24 01:43:47;;;;;;;4.93;2.20;;;;;;;18.33;100.00;97552.50;5033477;28;20214;-68
2022/06/24 01:46:14;;;;;;;3.77;2.30;;;;;;;18.33;100.00;97551.72;5033523;28;20576;-68
2022/06/24 01:48:41;;;;;;;7.60;2.30;;;;;;;18.33;100.00;97551.72;5033591;28;20234;-69
2022/06/24 01:51:10;;;;;;;7.03;2.30;;;;;;;18.29;100.00;97553.34;5033871;28;20182;-69
2022/06/24 01:53:36;;;;;;;5.03;2.37;;;;;;;18.33;100.00;97549.03;5016627;28;20296;-68
2022/06/24 01:56:03;;;;;;;5.10;2.50;;;;;;;18.25;100.00;97554.97;5033736;28;20210;-69
2022/06/24 01:58:30;;;;;;;4.20;2.60;;;;;;;18.26;100.00;97557.38;5033307;28;20596;-69
2022/06/24 02:00:56;;;;;;;9.43;2.50;;;;;;;18.29;100.00;97556.03;5033585;28;20668;-69
2022/06/24 02:03:23;;;;;;;4.53;2.07;;;;;;;18.29;100.00;97556.84;5033280;28;20206;-69
2022/06/24 02:05:50;;;;;;;6.57;2.53;;;;;;;18.24;100.00;97548.78;5033345;28;20206;-68
2022/06/24 02:08:16;;;;;;;8.77;2.73;;;;;;;18.23;100.00;97549.88;5033537;28;20226;-69
2022/06/24 02:13:28;;;;;;;6.10;2.40;;;;;;;18.29;100.00;97546.06;5018589;28;20173;-69
2022/06/24 02:15:54;;;;;;;4.50;2.27;;;;;;;18.32;100.00;97540.13;5033491;28;20300;-69
2022/06/24 02:18:21;;;;;;;6.37;2.70;;;;;;;18.33;100.00;97528.28;5033418;28;20268;-69
2022/06/24 02:20:47;;;;;;;5.73;2.60;;;;;;;18.31;100.00;97535.00;5033086;28;20723;-69
2022/06/24 02:23:13;;;;;;;6.43;2.60;;;;;;;18.23;100.00;97528.34;5033123;28;20318;-69
2022/06/24 02:25:40;;;;;;;4.63;2.43;;;;;;;18.19;100.00;97535.38;5033442;28;20202;-68
2022/06/24 02:28:06;;;;;;;4.87;3.10;;;;;;;18.21;100.00;97529.72;5033037;28;20222;-69
2022/06/24 02:30:33;;;;;;;4.97;2.93;;;;;;;18.15;100.00;97528.94;5033385;28;20198;-69
2022/06/24 02:32:59;;;;;;;6.33;3.00;;;;;;;18.10;100.00;97525.50;5033362;28;20209;-69
2022/06/24 02:35:26;;;;;;;5.40;2.80;;;;;;;18.07;100.00;97528.72;5033331;28;20289;-68
2022/06/24 02:37:52;;;;;;;3.97;2.40;;;;;;;18.03;100.00;97528.50;5033328;28;20206;-69
2022/06/24 02:43:03;;;;;;;3.77;2.17;;;;;;;18.02;100.00;97521.50;5033061;28;20173;-68
2022/06/24 02:45:29;;;;;;;6.53;2.63;;;;;;;17.94;100.00;97514.03;5033252;28;20308;-69
2022/06/24 02:47:56;;;;;;;5.60;2.37;;;;;;;17.91;100.00;97528.00;5032824;28;20225;-69
2022/06/24 02:50:22;;;;;;;3.97;2.50;;;;;;;17.90;100.00;97525.59;5032797;28;20232;-69
2022/06/24 02:52:48;;;;;;;5.07;2.70;;;;;;;17.88;100.00;97528.59;5032868;28;20681;-69
2022/06/24 02:55:15;;;;;;;4.50;2.40;;;;;;;17.87;100.00;97518.88;5034934;28;20237;-69
2022/06/24 02:57:41;;;;;;;3.53;2.23;;;;;;;17.86;100.00;97521.84;5036794;28;20298;-69
2022/06/24 03:00:08;;;;;;;7.60;2.80;;;;;;;17.85;100.00;97526.44;5036731;28;20232;-69
2022/06/24 03:02:35;;;;;;;9.37;2.50;;;;;;;17.85;100.00;97528.31;5036822;28;20300;-69
2022/06/24 03:05:01;;;;;;;6.30;2.57;;;;;;;17.72;100.00;97529.75;5036351;28;20696;-69
2022/06/24 03:07:27;;;;;;;7.60;2.80;;;;;;;17.79;100.00;97522.19;5036624;28;20206;-69
2022/06/24 03:09:54;;;;;;;7.00;2.90;;;;;;;17.75;100.00;97525.69;5036647;28;20229;-69
2022/06/24 03:12:20;;;;;;;7.23;2.70;;;;;;;17.71;100.00;97521.94;5035971;28;20216;-69
2022/06/24 03:14:46;;;;;;;4.97;2.43;;;;;;;17.64;100.00;97522.25;5036593;28;20212;-69
2022/06/24 03:17:13;;;;;;;5.73;2.80;;;;;;;17.68;100.00;97526.00;5036222;28;20296;-69
2022/06/24 03:19:39;;;;;;;4.80;2.47;;;;;;;17.75;100.00;97523.00;5036374;28;20226;-69
2022/06/24 03:22:06;;;;;;;5.53;2.83;;;;;;;17.56;100.00;97527.41;5036097;28;20212;-69
2022/06/24 03:24:32;;;;;;;3.53;2.37;;;;;;;17.62;100.00;97521.72;5036479;28;20214;-69
2022/06/24 03:26:58;;;;;;;6.60;2.70;;;;;;;17.48;100.00;97518.03;5035886;28;20218;-69
2022/06/24 03:29:25;;;;;;;4.67;2.77;;;;;;;17.49;100.00;97516.94;5035705;28;20226;-69
2022/06/24 03:31:51;;;;;;;5.30;2.53;;;;;;;17.54;100.00;97516.09;5035798;28;20201;-69
2022/06/24 03:34:17;;;;;;;4.73;2.40;;;;;;;17.52;100.00;97511.03;5035898;28;20214;-69
2022/06/24 03:36:44;;;;;;;5.20;2.33;;;;;;;17.52;100.00;97508.34;5035951;28;20206;-69
2022/06/24 03:39:10;;;;;;;7.30;2.93;;;;;;;17.50;100.00;97510.50;5035587;28;20258;-69
2022/06/24 03:41:37;;;;;;;6.90;2.63;;;;;;;17.49;100.00;97511.56;5035859;28;20226;-69
2022/06/24 03:44:03;;;;;;;6.17;2.60;;;;;;;17.43;100.00;97510.00;5035897;28;20218;-69
2022/06/24 03:46:30;;;;;;;3.97;2.60;;;;;;;17.34;100.00;97514.31;5035748;28;20202;-69
2022/06/24 03:48:56;;;;;;;7.63;3.00;;;;;;;17.36;100.00;97503.25;5035629;28;20287;-69
2022/06/24 03:51:22;;;;;;;6.13;3.10;;;;;;;17.40;100.00;97507.84;5035815;28;20204;-69
2022/06/24 03:53:49;;;;;;;7.03;3.00;;;;;;;17.34;100.00;97505.44;5035863;28;20232;-69
2022/06/24 03:56:15;;;;;;;4.90;2.73;;;;;;;17.27;100.00;97494.16;5035775;28;20206;-69
2022/06/24 03:58:41;;;;;;;5.07;3.00;;;;;;;17.36;100.00;97495.19;5035296;28;20234;-69
2022/06/24 04:01:08;;;;;;;7.20;2.90;;;;;;;17.33;100.00;97498.44;5035285;28;20236;-69
2022/06/24 04:03:34;;;;;;;6.83;2.83;;;;;;;17.32;100.00;97505.69;5035281;28;20202;-69
2022/06/24 04:06:01;;;;;;;6.27;2.77;;;;;;;17.33;100.00;97507.28;5035057;28;20202;-69
2022/06/24 04:08:27;;;;;;;4.73;2.60;;;;;;;17.30;100.00;97501.69;5034899;28;20616;-69
2022/06/24 04:10:54;;;;;;;8.00;2.87;;;;;;;17.39;100.00;97494.66;5035506;28;20197;-69
2022/06/24 04:13:20;;;;;;;4.80;3.00;;;;;;;17.33;100.00;97493.06;5035188;28;20564;-69
2022/06/24 04:15:49;;;;;;;7.27;2.70;;;;;;;17.29;100.00;97498.19;5035399;28;20212;-69
2022/06/24 04:18:16;;;;;;;5.00;2.63;;;;;;;17.32;100.00;97499.53;5035344;28;20256;-69
2022/06/24 04:20:43;;;;;;;6.23;3.10;;;;;;;17.35;100.00;97493.59;5035257;28;20580;-70
2022/06/24 04:23:09;;;;;;;6.00;3.07;;;;;;;17.46;100.00;97487.94;5035006;28;20216;-69
2022/06/24 04:25:36;;;;;;;4.07;2.53;;;;;;;17.54;100.00;97486.53;5035062;28;20506;-69
2022/06/24 04:28:03;;;;;;;6.77;2.87;;;;;;;17.58;100.00;97492.97;5035117;28;20229;-69
2022/06/24 04:30:30;;;;;;;4.77;2.97;;;;;;;17.60;100.00;97497.00;5035039;28;20248;-69
2022/06/24 04:32:56;;;;;;;4.97;2.87;;;;;;;17.61;100.00;97504.00;5035077;28;20300;-69
2022/06/24 04:35:23;;;;;;;6.00;2.90;;;;;;;17.63;100.00;97501.81;5034742;28;20767;-69
2022/06/24 04:37:49;;;;;;;8.93;2.97;;;;;;;17.68;100.00;97492.91;5035018;28;20217;-69
2022/06/24 04:40:15;;;;;;;5.40;2.83;;;;;;;17.69;100.00;97498.03;5034319;28;20593;-69
2022/06/24 04:42:42;;;;;;;5.53;2.77;;;;;;;17.79;100.00;97498.00;5034644;28;20212;-69
2022/06/24 04:45:09;;;;;;;7.73;3.13;;;;;;;17.78;100.00;97493.66;5034640;28;20293;-69
2022/06/24 04:47:35;;;;;;;5.47;2.93;;;;;;;17.84;100.00;97489.06;5034331;28;20210;-69
2022/06/24 04:50:02;;;;;;;6.10;2.87;;;;;;;17.89;100.00;97486.34;5034099;28;20218;-69
2022/06/24 04:52:28;;;;;;;8.17;3.17;;;;;;;17.92;100.00;97481.22;5034447;28;20212;-69
2022/06/24 04:54:55;;;;;;;9.77;2.97;;;;;;;18.02;100.00;97488.41;5034143;28;20201;-69
2022/06/24 04:57:21;;;;;;;9.07;3.03;;;;;;;18.10;100.00;97482.44;5034169;28;20293;-69
2022/06/24 04:59:48;;;;;;;7.33;3.10;;;;;;;18.11;100.00;97476.78;5033988;28;20229;-69
2022/06/24 05:02:14;;;;;;;5.60;3.03;;;;;;;18.15;100.00;97487.78;5034018;28;20226;-68
2022/06/24 05:04:40;;;;;;;6.77;3.10;;;;;;;18.24;100.00;97480.72;5033760;28;20293;-69
2022/06/24 05:07:07;;;;;;;6.17;2.80;;;;;;;18.55;100.00;97471.34;5033712;28;20212;-69
2022/06/24 05:09:34;;;;;;;8.53;3.20;;;;;;;18.87;100.00;97469.66;5033945;28;20586;-68
2022/06/24 05:12:00;;;;;;;6.97;2.60;;;;;;;19.20;100.00;97474.13;5033501;28;20198;-69
2022/06/24 05:14:28;;;;;;;7.43;2.80;;;;;;;19.48;100.00;97470.59;5033350;28;20293;-69
2022/06/24 05:16:54;;;;;;;7.57;2.93;;;;;;;20.19;100.00;97480.38;5033065;28;20320;-68
2022/06/24 05:19:21;;;;;;;5.20;2.43;;;;;;;20.42;100.00;97474.88;5033829;28;20266;-69
2022/06/24 05:21:47;;;;;;;6.13;2.50;;;;;;;20.92;99.99;97478.59;5033505;28;20237;-69
2022/06/24 05:24:14;;;;;;;8.47;2.20;;;;;;;21.16;96.48;97487.34;5033046;28;20665;-69
2022/06/24 05:26:44;;;;;;;6.73;2.43;;;;;;;21.39;95.83;97483.63;5033589;28;20206;-69
2022/06/24 05:29:11;;;;;;;5.57;2.50;;;;;;;21.36;94.16;97478.81;5033103;28;20596;-69
2022/06/24 05:31:39;;;;;;;7.70;2.50;;;;;;;20.97;98.23;97471.22;5033479;28;20202;-69
2022/06/24 05:34:06;;;;;;;5.97;2.23;;;;;;;20.57;100.00;97463.03;5032944;28;20212;-69
2022/06/24 05:36:34;;;;;;;6.03;2.50;;;;;;;20.22;100.00;97464.41;5033389;28;20209;-69
2022/06/24 05:39:07;;;;;;;8.00;2.80;;;;;;;20.06;100.00;97457.59;5034009;28;20230;-69
2022/06/24 05:41:34;;;;;;;7.13;2.77;;;;;;;20.18;100.00;97463.41;5033214;28;20236;-69
2022/06/24 05:44:01;;;;;;;7.33;2.73;;;;;;;20.10;100.00;97461.34;5033021;28;20228;-69
2022/06/24 05:46:28;;;;;;;6.63;2.43;;;;;;;20.12;100.00;97456.47;5033413;28;20237;-69
2022/06/24 05:48:54;;;;;;;8.37;2.50;;;;;;;20.16;100.00;97454.78;5033007;28;20249;-69
2022/06/24 05:51:21;;;;;;;7.87;2.60;;;;;;;20.19;100.00;97464.19;5032699;28;20667;-69
2022/06/24 05:56:32;;;;;;;7.90;2.50;;;;;;;20.19;98.68;97453.38;5033186;28;20537;-69
2022/06/24 05:58:59;;;;;;;8.50;2.80;;;;;;;20.15;99.21;97457.75;5033017;28;20233;-69
2022/06/24 06:01:27;;;;;;;7.80;2.60;;;;;;;20.11;100.00;97457.56;5033238;28;20308;-68
2022/06/24 06:03:54;;;;;;;9.07;2.77;;;;;;;20.23;100.00;97466.00;5032841;28;20213;-69
2022/06/24 06:06:20;;;;;;;6.47;2.63;;;;;;;20.31;100.00;97453.75;5032668;28;20296;-68
2022/06/24 06:08:47;;;;;;;7.47;2.77;;;;;;;20.31;100.00;97456.44;5032701;28;20229;-68
2022/06/24 06:11:24;;;;;;;6.37;2.60;;;;;;;20.43;99.95;97468.38;5032538;28;20210;-68
2022/06/24 06:13:53;;;;;;;4.80;2.47;;;;;;;20.53;100.00;97453.91;5033031;28;20224;-69
2022/06/24 06:16:21;;;;;;;6.87;2.70;;;;;;;20.52;98.14;97460.41;5032806;28;20263;-69
2022/06/24 06:18:48;;;;;;;4.30;2.33;;;;;;;20.55;96.75;97463.31;5032514;28;20225;-69
2022/06/24 06:21:15;;;;;;;8.17;2.63;;;;;;;20.72;95.53;97470.84;5031855;28;20253;-70
2022/06/24 06:23:43;;;;;;;6.63;2.30;;;;;;;20.64;92.84;97468.81;5032461;28;20664;-69
2022/06/24 06:26:11;;;;;;;10.07;2.70;;;;;;;20.64;97.30;97468.81;5032161;28;20237;-71
2022/06/24 06:29:06;;;;;;;5.20;2.20;;;;;;;20.85;91.18;97473.56;5032071;28;20222;-70
2022/06/24 06:31:33;;;;;;;8.43;2.80;;;;;;;20.86;98.80;97469.78;5030414;28;20205;-69
2022/06/24 06:33:59;;;;;;;5.50;2.60;;;;;;;20.93;92.81;97466.72;5035124;28;20301;-70
2022/06/24 06:36:26;;;;;;;8.97;2.97;;;;;;;20.94;92.91;97474.50;5035123;28;20293;-69
2022/06/24 06:38:52;;;;;;;7.97;2.43;;;;;;;21.13;94.79;97474.44;5034986;28;20708;-70
2022/06/24 06:41:19;;;;;;;6.90;2.47;;;;;;;20.76;100.00;97479.97;5035604;28;20232;-70
2022/06/24 06:43:45;;;;;;;4.97;2.53;;;;;;;20.82;95.75;97481.47;5036332;28;20612;-69
2022/06/24 06:46:12;;;;;;;5.37;2.37;;;;;;;20.86;94.70;97471.66;5036586;28;20206;-69
2022/06/24 06:48:42;;;;;;;7.60;2.70;;;;;;;20.92;96.10;97471.31;5036034;28;20312;-69
2022/06/24 06:51:08;;;;;;;5.33;2.30;;;;;;;20.97;92.27;97470.41;5036664;28;20269;-70
2022/06/24 06:53:35;;;;;;;6.83;2.40;;;;;;;21.04;96.14;97473.50;5037380;28;20205;-69
2022/06/24 06:56:02;;;;;;;7.33;2.50;;;;;;;21.10;98.13;97475.00;5036871;28;20293;-70
2022/06/24 06:58:28;;;;;;;6.17;2.53;;;;;;;21.19;93.10;97470.50;5036963;28;20226;-70
2022/06/24 07:00:55;;;;;;;7.40;2.50;;;;;;;21.26;93.73;97468.22;5036977;28;20544;-69
2022/06/24 07:03:21;;;;;;;7.33;2.73;;;;;;;21.32;89.74;97477.81;5036654;28;20209;-70
2022/06/24 07:05:48;;;;;;;5.03;2.13;;;;;;;21.40;84.23;97471.72;5036404;28;20285;-68
2022/06/24 07:08:16;;;;;;;7.03;2.37;;;;;;;21.33;86.31;97477.53;5036381;28;20229;-69
2022/06/24 07:10:43;;;;;;;6.07;3.40;;;;;;;21.39;83.69;97472.81;5036461;28;20293;-69
2022/06/24 07:13:11;;;;;;;4.50;2.60;;;;;;;21.22;82.37;97478.84;5036052;28;20337;-69
2022/06/24 07:15:38;;;;;;;5.73;2.77;;;;;;;21.18;83.91;97477.03;5036157;28;20213;-69
2022/06/24 07:18:05;;;;;;;6.30;2.63;;;;;;;21.17;86.52;97478.13;5036235;28;20222;-68
2022/06/24 07:20:33;;;;;;;6.00;2.83;;;;;;;21.25;83.72;97480.94;5035904;28;20216;-69
2022/06/24 07:22:59;;;;;;;6.13;2.57;;;;;;;21.37;82.85;97483.13;5035727;28;20688;-68
2022/06/24 07:25:26;;;;;;;5.73;2.47;;;;;;;21.18;82.19;97482.44;5035947;28;20281;-68
2022/06/24 07:27:52;;;;;;;4.57;2.30;;;;;;;21.03;81.42;97480.03;5035951;28;20323;-69
2022/06/24 07:30:19;;;;;;;5.37;2.70;;;;;;;21.19;82.84;97478.63;5035585;28;20672;-69
2022/06/24 07:32:47;;;;;;;5.07;4.30;;;;;;;21.42;82.50;97481.13;5036051;28;20198;-69
2022/06/24 07:35:14;;;;;;;6.77;2.80;;;;;;;21.56;80.38;97483.84;5035636;28;20213;-69
2022/06/24 07:37:40;;;;;;;5.37;2.33;;;;;;;21.59;78.54;97485.91;5035924;28;20292;-69
2022/06/24 07:40:07;;;;;;;5.50;2.43;;;;;;;21.68;79.62;97486.81;5034668;28;20641;-68
2022/06/24 07:42:35;;;;;;;4.73;1.97;;;;;;;21.70;80.79;97479.22;5035711;28;20304;-69
2022/06/24 07:45:02;;;;;;;6.20;2.17;;;;;;;21.60;75.31;97479.38;5035933;28;20217;-68
2022/06/24 07:47:28;;;;;;;4.27;1.83;;;;;;;21.68;77.43;97475.97;5035947;28;20225;-68
2022/06/24 07:49:54;;;;;;;3.97;2.00;;;;;;;21.75;76.85;97477.19;5035085;28;20321;-68
2022/06/24 07:52:21;;;;;;;9.80;2.47;;;;;;;21.74;75.44;97466.66;5036613;28;20198;-71
2022/06/24 07:56:56;;;;;;;6.17;2.20;;;;;;;21.77;74.45;97469.59;5035345;28;20213;-70
2022/06/24 07:57:33;;;;;;;3.17;2.30;;;;;;;21.84;76.97;97461.84;5035173;28;20213;-70
2022/06/24 08:00:00;;;;;;;4.90;2.70;;;;;;;21.91;77.87;97459.53;5035045;28;20787;-70
2022/06/24 08:02:26;;;;;;;7.43;4.07;;;;;;;22.03;75.53;97456.28;5035501;28;20316;-68
2022/06/24 08:04:54;;;;;;;4.07;2.33;;;;;;;22.14;74.67;97463.03;5035658;28;20256;-68
2022/06/24 08:07:20;;;;;;;3.30;1.80;;;;;;;22.05;72.79;97465.69;5035208;28;20313;-69
2022/06/24 08:09:47;;;;;;;5.17;2.03;;;;;;;22.16;73.71;97450.81;5034965;28;20238;-68
2022/06/24 08:12:13;;;;;;;2.57;2.33;;;;;;;22.11;72.13;97450.16;5035243;28;20293;-69
2022/06/24 08:14:39;;;;;;;4.73;1.73;;;;;;;22.18;72.67;97445.91;5034965;28;20290;-68
2022/06/24 08:17:06;;;;;;;4.25;2.75;;;;;;;22.28;69.95;97447.53;5035259;28;20234;-68
2022/06/24 08:19:32;;;;;;;5.53;2.10;;;;;;;22.37;70.46;97442.97;5035364;28;20657;-68
2022/06/24 08:21:59;;;;;;;7.33;5.70;;;;;;;22.37;69.60;97440.28;5035630;28;20316;-68
2022/06/24 08:24:25;;;;;;;2.77;2.07;;;;;;;22.50;66.41;97440.25;5035252;28;20582;-69
2022/06/24 08:26:51;;;;;;;4.07;2.53;;;;;;;22.73;65.24;97435.56;5035696;28;20312;-68
2022/06/24 08:29:18;;;;;;;6.65;2.00;;;;;;;22.76;67.84;97432.25;5035009;28;20225;-69
2022/06/24 08:31:44;;;;;;;3.83;1.90;;;;;;;22.56;65.67;97433.56;5034920;28;20210;-69
2022/06/24 08:34:11;;;;;;;6.75;3.20;;;;;;;22.71;63.81;97435.09;5034356;28;20206;-69
2022/06/24 08:36:38;;;;;;;4.82;3.20;;;;;;;22.83;62.35;97419.84;5034762;28;20206;-69
2022/06/24 08:39:06;;;;;;;3.58;2.63;;;;;;;23.26;64.88;97417.31;5035214;28;20238;-69
2022/06/24 08:41:33;;;;;;;7.15;6.47;;;;;;;23.56;62.37;97419.16;5034565;28;20226;-69
2022/06/24 08:44:00;;;;;;;2.45;1.73;;;;;;;24.09;59.82;97422.38;5034578;28;20296;-68
2022/06/24 08:46:26;;;;;;;5.88;3.00;;;;;;;23.90;62.18;97417.28;5034665;28;20232;-69
2022/06/24 08:48:58;;;;;;;3.28;1.80;;;;;;;23.61;62.17;97410.84;5034426;28;20328;-69
2022/06/24 08:51:25;;;;;;;2.28;1.80;;;;;;;23.66;62.71;97408.75;5033858;28;20558;-69
2022/06/24 08:53:56;;;;;;;4.53;1.95;;;;;;;23.35;64.96;97410.00;5034435;28;20582;-68
2022/06/24 08:56:23;;;;;;;5.85;3.10;;;;;;;23.11;60.96;97413.09;5034260;28;20637;-69
2022/06/24 08:58:50;;;;;;;2.67;1.85;;;;;;;22.96;62.27;97413.53;5034508;28;20591;-69
2022/06/24 09:01:16;;;;;;;4.10;1.95;;;;;;;22.80;66.43;97409.63;5034289;28;20202;-69
2022/06/24 09:03:47;;;;;;;3.38;1.95;;;;;;;22.67;68.19;97410.53;5035190;28;20210;-69
2022/06/24 09:06:18;;;;;;;4.25;1.80;;;;;;;22.68;63.98;97411.31;5035015;28;20210;-69
2022/06/24 09:08:54;;;;;;;2.78;1.85;;;;;;;22.51;63.33;97413.94;5033951;28;20237;-69
2022/06/24 09:11:21;;;;;;;6.78;2.97;;;;;;;22.64;65.17;97407.63;5033345;28;20301;-68
2022/06/24 09:13:48;;;;;;;3.78;2.20;;;;;;;22.22;71.23;97405.44;5034210;28;20288;-68
2022/06/24 09:16:17;;;;;;;5.47;3.10;;;;;;;22.39;74.78;97400.16;5033603;28;20214;-68
2022/06/24 09:18:56;;;;;;;3.88;2.38;;;;;;;22.42;71.55;97405.75;5033674;28;20567;-69
2022/06/24 09:21:30;;;;;;;5.53;2.63;;;;;;;22.99;71.03;97393.13;5033970;28;20200;-69
2022/06/24 09:23:59;;;;;;;7.38;2.30;;;;;;;23.27;66.81;97395.31;5033676;28;20645;-69
2022/06/24 09:26:39;;;;;;;5.45;2.00;;;;;;;23.57;66.52;97388.19;5033384;28;20259;-69
2022/06/24 09:29:16;;;;;;;4.25;2.17;;;;;;;23.58;66.32;97395.19;5033540;28;20247;-68
2022/06/24 09:31:43;;;;;;;7.40;2.75;;;;;;;23.50;68.57;97390.56;5033633;28;20602;-69
2022/06/24 09:34:18;;;;;;;5.25;2.42;;;;;;;23.70;68.35;97389.94;5033474;28;20210;-68
2022/06/24 09:36:47;;;;;;;6.18;2.40;;;;;;;23.74;67.80;97388.19;5034179;28;20288;-68
2022/06/24 09:39:17;;;;;;;4.90;2.35;;;;;;;23.38;69.58;97393.09;5033699;28;20230;-69
2022/06/24 09:41:44;;;;;;;6.00;2.40;;;;;;;23.15;67.76;97386.94;5033778;28;20558;-68
2022/06/24 09:44:11;;;;;;;5.68;2.60;;;;;;;23.13;70.25;97385.66;5033534;28;20214;-69
2022/06/24 09:46:37;;;;;;;4.63;2.28;;;;;;;23.25;70.07;97391.31;5034076;28;20206;-68
2022/06/24 09:49:10;;;;;;;4.63;1.98;;;;;;;23.74;65.87;97394.41;5033062;28;20316;-68
2022/06/24 09:51:39;;;;;;;3.15;1.60;;;;;;;23.42;61.54;97385.94;5033457;28;20194;-69
2022/06/24 09:54:06;;;;;;;6.43;3.47;;;;;;;23.59;65.63;97394.06;5033486;28;20292;-69
2022/06/24 09:56:34;;;;;;;2.47;1.80;;;;;;;23.68;63.95;97389.44;5033328;28;20252;-68
2022/06/24 10:01:46;;;;;;;9.75;8.70;;;;;;;23.74;60.75;97385.47;5032961;28;20567;-69
2022/06/24 10:04:14;;;;;;;3.72;2.03;;;;;;;23.97;60.46;97384.22;5032666;28;20246;-69
2022/06/24 10:06:44;;;;;;;7.72;5.80;;;;;;;24.31;58.76;97384.16;5033177;28;20264;-69
2022/06/24 10:09:11;;;;;;;9.65;6.45;;;;;;;24.42;57.51;97377.28;5032857;28;20284;-69
2022/06/24 10:11:41;;;;;;;3.47;1.80;;;;;;;24.84;55.49;97365.50;5033023;28;20289;-69
2022/06/24 10:14:08;;;;;;;6.43;4.85;;;;;;;25.05;54.69;97375.28;5033105;28;20210;-69
2022/06/24 10:16:36;;;;;;;2.78;2.08;;;;;;;24.38;55.35;97376.34;5033132;28;20316;-69
2022/06/24 10:19:03;;;;;;;3.80;1.88;;;;;;;24.94;54.71;97376.81;5032994;28;20316;-69
2022/06/24 10:21:30;;;;;;;28.95;26.08;;;;;;;24.54;58.03;97374.69;5032785;28;20217;-69
2022/06/24 10:23:57;;;;;;;27.15;24.20;;;;;;;24.07;62.60;97375.75;5015484;28;20206;-69
2022/06/24 10:26:26;;;;;;;4.95;2.55;;;;;;;24.38;64.62;97376.34;5032705;28;20205;-69
2022/06/24 10:29:03;;;;;;;7.30;2.63;;;;;;;24.05;66.13;97381.50;5032604;28;20230;-68
2022/06/24 10:31:38;;;;;;;3.25;2.25;;;;;;;23.99;63.94;97380.06;5032609;28;20599;-69
2022/06/24 10:34:05;;;;;;;4.35;2.38;;;;;;;23.70;65.03;97387.22;5033043;28;20212;-69
2022/06/24 10:36:32;;;;;;;7.85;3.60;;;;;;;23.40;66.20;97386.25;5015877;28;20260;-69
2022/06/24 10:39:17;;;;;;;9.07;4.05;;;;;;;23.41;65.40;97387.03;5032527;28;20324;-68
2022/06/24 10:41:44;;;;;;;6.72;2.70;;;;;;;23.36;66.48;97387.19;5032255;28;20210;-69
2022/06/24 10:44:26;;;;;;;10.15;8.35;;;;;;;23.41;64.87;97390.56;5032859;28;20284;-69
2022/06/24 10:47:05;;;;;;;4.63;2.72;;;;;;;23.74;64.80;97382.75;5032894;28;20210;-69
2022/06/24 10:49:54;;;;;;;5.75;2.50;;;;;;;23.96;63.65;97378.00;5032678;28;20538;-68
2022/06/24 10:52:47;;;;;;;7.22;2.50;;;;;;;23.82;64.20;97379.22;5032555;28;20289;-69
2022/06/24 10:55:17;;;;;;;24.00;21.58;;;;;;;23.65;65.97;97371.88;5024808;28;20214;-69
2022/06/24 10:57:44;;;;;;;7.53;3.30;;;;;;;23.63;66.80;97376.03;5032153;28;20744;-69
2022/06/24 11:00:14;;;;;;;4.60;2.25;;;;;;;23.78;64.32;97372.88;5032557;28;20208;-68
2022/06/24 11:02:41;;;;;;;6.43;3.55;;;;;;;23.62;64.04;97377.16;5032265;28;20213;-68
2022/06/24 11:05:12;;;;;;;4.97;3.35;;;;;;;23.60;66.81;97371.28;5032498;28;20206;-69
2022/06/24 11:07:46;;;;;;;7.35;4.70;;;;;;;23.45;63.84;97366.28;5032177;28;20190;-69
2022/06/24 11:10:21;;;;;;;4.75;2.10;;;;;;;23.56;67.47;97371.09;5032317;28;20201;-68
2022/06/24 11:12:53;;;;;;;6.50;5.13;;;;;;;23.60;65.18;97368.56;5032363;28;20720;-68
2022/06/24 11:15:32;;;;;;;7.53;5.55;;;;;;;23.63;68.83;97371.44;5032980;28;20218;-68
2022/06/24 11:18:05;;;;;;;11.32;5.15;;;;;;;23.50;66.69;97368.84;5035625;28;20299;-68
2022/06/24 11:20:34;;;;;;;6.80;5.57;;;;;;;23.55;64.39;97368.69;5035973;28;20580;-69
2022/06/24 11:23:01;;;;;;;10.85;9.18;;;;;;;23.77;62.70;97372.06;5018178;28;20569;-69
2022/06/24 11:25:28;;;;;;;6.32;2.38;;;;;;;24.06;61.05;97364.06;5036616;28;20304;-69
2022/06/24 11:27:54;;;;;;;5.78;3.75;;;;;;;24.16;64.03;97363.72;5035666;28;20302;-69
2022/06/24 11:30:20;;;;;;;5.82;4.63;;;;;;;24.11;59.97;97361.19;5035453;28;20289;-67
2022/06/24 11:32:58;;;;;;;4.72;2.20;;;;;;;24.28;59.81;97363.09;5035627;28;20740;-68
2022/06/24 11:35:26;;;;;;;6.07;2.00;;;;;;;24.51;60.62;97357.09;5035466;28;20527;-68
2022/06/24 11:37:57;;;;;;;3.88;3.00;;;;;;;24.71;57.95;97363.78;5035613;28;20206;-67
2022/06/24 11:40:28;;;;;;;33.22;29.00;;;;;;;24.30;58.48;97363.56;5035639;28;20190;-67
2022/06/24 11:42:56;;;;;;;3.85;2.10;;;;;;;24.19;60.41;97352.22;5035404;28;20221;-68
2022/06/24 11:45:45;;;;;;;26.88;24.08;;;;;;;23.66;64.42;97365.34;5035161;28;20744;-68